Time;durP1;ratioP1;P1;durP2;ratioP2;P2;SDS_P1;SDS_P2;PMS_P1;PMS_P2;Temp;Humidity;BMP_temperature;BMP_pressure;BME280_temperature;BME280_humidity;BME280_pressure;Samples;Min_cycle;Max_cycle;Signal;HPM_P1;HPM_P2
2021/01/01 00:00:33;;;;;;;53.60;36.03;;;5.60;84.70;;;;;;5035834;28;20394;-65
2021/01/01 00:03:00;;;;;;;51.93;36.63;;;5.60;84.90;;;;;;5035800;28;20160;-65
2021/01/01 00:05:29;;;;;;;54.30;37.10;;;5.60;85.30;;;;;;5035768;28;20017;-65
2021/01/01 00:07:55;;;;;;;53.50;35.93;;;5.60;85.20;;;;;;5035938;28;20037;-66
2021/01/01 00:10:22;;;;;;;53.57;36.20;;;5.60;85.40;;;;;;5035834;28;20029;-66
2021/01/01 00:12:48;;;;;;;52.30;33.57;;;5.60;85.50;;;;;;5035547;28;20029;-66
2021/01/01 00:15:14;;;;;;;50.30;33.83;;;5.70;85.90;;;;;;5035801;28;20025;-65
2021/01/01 00:17:40;;;;;;;45.80;31.87;;;;;;;;;;5035320;28;20055;-65
2021/01/01 00:20:08;;;;;;;42.67;30.60;;;;;;;;;;5034414;28;20053;-67
2021/01/01 00:22:34;;;;;;;43.53;29.10;;;;;;;;;;5032821;28;20041;-68
2021/01/01 00:25:00;;;;;;;41.20;27.43;;;;;;;;;;5033521;28;20463;-68
2021/01/01 00:27:29;;;;;;;41.67;26.80;;;;;;;;;;5035358;28;20513;-69
2021/01/01 00:29:56;;;;;;;48.37;30.37;;;;;;;;;;5035669;28;20026;-67
2021/01/01 00:32:22;;;;;;;70.57;41.30;;;;;;;;;;5034209;28;20037;-68
2021/01/01 00:34:49;;;;;;;119.90;69.27;;;;;;;;;;5035326;28;20037;-68
2021/01/01 00:37:15;;;;;;;97.40;59.33;;;;;;;;;;5033825;28;20386;-69
2021/01/01 00:39:41;;;;;;;60.80;38.67;;;;;;;;;;5035527;28;20108;-68
2021/01/01 00:42:07;;;;;;;49.03;32.50;;;;;;;;;;5035285;28;20037;-68
2021/01/01 00:44:33;;;;;;;43.23;30.03;;;;;;;;;;5035332;28;20244;-68
2021/01/01 00:47:00;;;;;;;42.00;28.60;;;;;;;;;;5035104;28;20471;-68
2021/01/01 00:49:26;;;;;;;41.50;28.20;;;;;;;;;;5035099;28;20029;-68
2021/01/01 00:51:52;;;;;;;43.30;29.97;;;;;;;;;;5035046;28;20022;-68
2021/01/01 00:54:18;;;;;;;43.43;29.20;;;;;;;;;;5035086;28;20037;-69
2021/01/01 00:56:44;;;;;;;42.80;29.50;;;;;;;;;;5035086;28;20108;-69
2021/01/01 00:59:10;;;;;;;42.63;29.73;;;;;;;;;;5035151;28;20033;-68
2021/01/01 01:01:36;;;;;;;44.40;30.70;;;;;;;;;;5034795;28;20393;-68
2021/01/01 01:04:03;;;;;;;43.50;30.10;;;5.70;86.00;;;;;;5035290;28;20026;-69
2021/01/01 01:06:30;;;;;;;43.37;30.87;;;;;;;;;;5034610;28;20525;-68
2021/01/01 01:08:56;;;;;;;43.07;29.77;;;;;;;;;;5034961;28;20017;-68
2021/01/01 01:11:25;;;;;;;50.43;29.93;;;;;;;;;;5034903;28;20105;-69
2021/01/01 01:13:52;;;;;;;46.23;32.57;;;;;;;;;;5034966;28;20025;-68
2021/01/01 01:16:22;;;;;;;48.17;31.57;;;;;;;;;;5034855;28;20026;-69
2021/01/01 01:18:48;;;;;;;44.33;29.37;;;;;;;;;;5034660;28;20517;-68
2021/01/01 01:21:14;;;;;;;44.13;30.00;;;;;;;;;;5034619;28;20049;-69
2021/01/01 01:23:41;;;;;;;47.40;32.50;;;;;;;;;;5034519;28;20025;-69
2021/01/01 01:26:07;;;;;;;46.37;31.73;;;;;;;;;;5034622;28;20068;-68
2021/01/01 01:28:33;;;;;;;48.33;32.53;;;;;;;;;;5034719;28;20057;-68
2021/01/01 01:30:59;;;;;;;54.90;35.90;;;;;;;;;;5034423;28;20057;-70
2021/01/01 01:33:26;;;;;;;49.87;34.00;;;;;;;;;;5034304;28;20026;-68
2021/01/01 01:35:52;;;;;;;48.60;32.53;;;;;;;;;;5034307;28;20386;-69
2021/01/01 01:38:19;;;;;;;50.77;34.80;;;;;;;;;;5034024;28;20080;-68
2021/01/01 01:40:45;;;;;;;45.97;33.30;;;;;;;;;;5034265;28;20021;-68
2021/01/01 01:43:11;;;;;;;49.57;33.43;;;;;;;;;;5034142;28;20159;-69
2021/01/01 01:45:37;;;;;;;50.03;33.00;;;;;;;;;;5034103;28;20468;-70
2021/01/01 01:48:04;;;;;;;65.23;35.20;;;;;;;;;;5034096;28;20038;-69
2021/01/01 01:50:31;;;;;;;51.40;34.37;;;;;;;;;;5034149;28;20026;-69
2021/01/01 01:52:57;;;;;;;51.30;33.00;;;;;;;;;;5034116;28;20025;-68
2021/01/01 01:55:23;;;;;;;50.63;34.37;;;;;;;;;;5034110;28;20030;-69
2021/01/01 01:57:50;;;;;;;49.03;33.00;;;;;;;;;;5032624;28;20037;-68
2021/01/01 02:02:48;;;;;;;45.92;31.15;;;;;;;;;;5031281;28;20437;-68
2021/01/01 02:05:14;;;;;;;47.97;32.17;;;;;;;;;;5032819;28;20030;-68
2021/01/01 02:07:41;;;;;;;53.47;35.47;;;;;;;;;;5033859;28;20026;-69
2021/01/01 02:10:08;;;;;;;50.70;34.80;;;;;;;;;;5033816;28;20025;-69
2021/01/01 02:12:34;;;;;;;52.60;34.00;;;;;;;;;;5033088;28;20025;-68
2021/01/01 02:15:00;;;;;;;53.70;34.47;;;;;;;;;;5033340;28;20396;-68
2021/01/01 02:17:26;;;;;;;50.93;35.03;;;;;;;;;;5033533;28;20486;-68
2021/01/01 02:20:11;;;;;;;52.47;35.03;;;;;;;;;;5033716;28;20026;-69
2021/01/01 02:22:41;;;;;;;50.57;32.97;;;;;;;;;;5033064;28;20512;-68
2021/01/01 02:25:09;;;;;;;49.20;33.07;;;;;;;;;;5033284;28;20097;-68
2021/01/01 02:27:35;;;;;;;58.20;36.13;;;;;;;;;;5033156;28;20059;-68
2021/01/01 02:30:01;;;;;;;51.10;34.00;;;;;;;;;;5033410;28;20026;-68
2021/01/01 02:32:27;;;;;;;51.10;33.57;;;;;;;;;;5032106;28;20075;-68
2021/01/01 02:34:53;;;;;;;52.20;34.40;;;;;;;;;;5033174;28;20037;-68
2021/01/01 02:37:19;;;;;;;52.60;33.20;;;;;;;;;;5032901;28;20021;-69
2021/01/01 02:39:45;;;;;;;51.93;32.70;;;;;;;;;;5033270;28;20070;-68
2021/01/01 02:42:11;;;;;;;49.90;33.63;;;;;;;;;;5033134;28;20091;-69
2021/01/01 02:44:37;;;;;;;50.10;32.93;;;;;;;;;;5032816;28;20037;-69
2021/01/01 02:47:04;;;;;;;46.37;31.93;;;;;;;;;;5033005;28;20084;-69
2021/01/01 02:49:31;;;;;;;45.37;30.47;;;;;;;;;;5033138;28;20068;-70
2021/01/01 02:51:57;;;;;;;50.20;31.63;;;;;;;;;;5032967;28;20021;-68
2021/01/01 02:54:23;;;;;;;43.00;29.17;;;;;;;;;;5033173;28;20499;-68
2021/01/01 02:56:49;;;;;;;39.27;26.77;;;;;;;;;;5032196;28;20036;-69
2021/01/01 02:59:15;;;;;;;40.80;27.67;;;;;;;;;;5032409;28;20013;-68
2021/01/01 03:01:42;;;;;;;46.60;29.10;;;;;;;;;;5032663;28;20044;-68
2021/01/01 03:04:08;;;;;;;41.87;27.13;;;5.80;86.30;;;;;;5033027;28;20026;-68
2021/01/01 03:06:33;;;;;;;42.57;27.67;;;5.50;86.70;;;;;;5033103;28;20092;-68
2021/01/01 03:08:59;;;;;;;44.20;28.00;;;5.40;86.70;;;;;;5032810;28;20459;-68
2021/01/01 03:11:25;;;;;;;40.27;27.77;;;5.40;86.80;;;;;;5032857;28;20398;-69
2021/01/01 03:13:50;;;;;;;42.17;28.37;;;5.40;87.10;;;;;;5033060;28;20390;-68
2021/01/01 03:16:16;;;;;;;40.10;26.07;;;;;;;;;;5032940;28;20033;-68
2021/01/01 03:18:43;;;;;;;39.83;28.27;;;;;;;;;;5032843;28;20081;-68
2021/01/01 03:21:09;;;;;;;41.03;27.00;;;;;;;;;;5033002;28;20025;-69
2021/01/01 03:23:35;;;;;;;43.97;28.93;;;;;;;;;;5032741;28;20381;-70
2021/01/01 03:26:01;;;;;;;42.17;27.10;;;;;;;;;;5032677;28;20028;-68
2021/01/01 03:28:27;;;;;;;45.00;28.87;;;;;;;;;;5032768;28;20033;-69
2021/01/01 03:30:53;;;;;;;40.43;27.17;;;;;;;;;;5032908;28;20532;-68
2021/01/01 03:33:19;;;;;;;43.20;27.77;;;;;;;;;;5032812;28;20548;-68
2021/01/01 03:35:45;;;;;;;41.17;26.73;;;;;;;;;;5032433;28;20033;-68
2021/01/01 03:38:12;;;;;;;44.10;28.07;;;;;;;;;;5032782;28;20021;-70
2021/01/01 03:40:38;;;;;;;42.70;27.23;;;;;;;;;;5032667;28;20501;-69
2021/01/01 03:43:04;;;;;;;41.97;27.27;;;;;;;;;;5032787;28;20061;-68
2021/01/01 03:45:30;;;;;;;40.13;27.40;;;;;;;;;;5032939;28;20032;-68
2021/01/01 03:47:56;;;;;;;40.87;28.10;;;;;;;;;;5033075;28;20158;-68
2021/01/01 03:50:22;;;;;;;40.43;26.50;;;;;;;;;;5032938;28;20067;-69
2021/01/01 03:52:48;;;;;;;37.20;26.63;;;;;;;;;;5032472;28;20104;-68
2021/01/01 03:55:14;;;;;;;37.70;24.97;;;;;;;;;;5032668;28;20496;-69
2021/01/01 03:57:40;;;;;;;35.27;22.60;;;;;;;;;;5032374;28;20052;-69
2021/01/01 04:00:07;;;;;;;34.07;21.50;;;;;;;;;;5032658;28;20032;-69
2021/01/01 04:02:33;;;;;;;32.50;20.67;;;;;;;;;;5032437;28;20553;-68
2021/01/01 04:04:59;;;;;;;32.77;20.57;;;;;;;;;;5032672;28;20486;-68
2021/01/01 04:07:25;;;;;;;25.87;17.03;;;;;;;;;;5033986;28;20105;-70
2021/01/01 04:09:51;;;;;;;26.60;15.90;;;;;;;;;;5036159;28;20091;-69
2021/01/01 04:12:19;;;;;;;27.10;17.67;;;;;;;;;;5036077;28;20064;-70
2021/01/01 04:14:45;;;;;;;29.17;17.77;;;;;;;;;;5035954;28;20022;-69
2021/01/01 04:17:11;;;;;;;24.37;16.67;;;;;;;;;;5035650;28;20387;-70
2021/01/01 04:19:37;;;;;;;26.47;17.27;;;;;;;;;;5035910;28;20030;-68
2021/01/01 04:22:03;;;;;;;28.13;16.30;;;;;;;;;;5035773;28;20042;-69
2021/01/01 04:24:30;;;;;;;26.63;15.00;;;;;;;;;;5035553;28;20025;-68
2021/01/01 04:26:56;;;;;;;21.00;13.73;;;;;;;;;;5035847;28;20112;-69
2021/01/01 04:29:22;;;;;;;22.50;13.67;;;;;;;;;;5035851;28;20052;-69
2021/01/01 04:31:48;;;;;;;23.27;13.90;;;;;;;;;;5035713;28;20398;-70
2021/01/01 04:34:14;;;;;;;22.70;14.40;;;;;;;;;;5035616;28;20458;-70
2021/01/01 04:36:40;;;;;;;23.20;13.93;;;;;;;;;;5035580;28;20375;-70
2021/01/01 04:39:06;;;;;;;22.90;14.27;;;;;;;;;;5035671;28;20030;-68
2021/01/01 04:41:36;;;;;;;22.30;14.73;;;;;;;;;;5035608;28;20087;-69
2021/01/01 04:44:03;;;;;;;22.70;14.23;;;;;;;;;;5035472;28;20030;-69
2021/01/01 04:46:30;;;;;;;23.77;15.13;;;;;;;;;;5035247;28;20044;-68
2021/01/01 04:48:56;;;;;;;22.83;14.40;;;;;;;;;;5035236;28;20029;-69
2021/01/01 04:51:22;;;;;;;22.97;15.80;;;;;;;;;;5035202;28;20095;-68
2021/01/01 04:53:48;;;;;;;23.77;15.77;;;;;;;;;;5035249;28;20053;-69
2021/01/01 04:56:14;;;;;;;25.97;14.83;;;;;;;;;;5035287;28;20459;-69
2021/01/01 04:58:40;;;;;;;22.40;14.37;;;;;;;;;;5034939;28;20052;-68
2021/01/01 05:01:06;;;;;;;22.50;14.10;;;;;;;;;;5034877;28;20025;-69
2021/01/01 05:03:32;;;;;;;19.40;13.00;;;;;;;;;;5035018;28;20025;-70
2021/01/01 05:05:58;;;;;;;21.13;11.97;;;;;;;;;;5035106;28;20570;-69
2021/01/01 05:08:24;;;;;;;21.37;12.90;;;;;;;;;;5035016;28;20026;-68
2021/01/01 05:10:51;;;;;;;23.73;12.77;;;;;;;;;;5034771;28;20445;-69
2021/01/01 05:13:20;;;;;;;21.83;12.47;;;;;;;;;;5034975;28;20030;-70
2021/01/01 05:15:48;;;;;;;22.70;12.43;;;;;;;;;;5034879;28;20053;-69
2021/01/01 05:18:18;;;;;;;20.27;11.67;;;;;;;;;;5033955;28;20053;-69
2021/01/01 05:20:44;;;;;;;19.17;11.20;;;;;;;;;;5034570;28;20022;-69
2021/01/01 05:23:21;;;;;;;18.30;11.60;;;;;;;;;;5034537;28;20033;-70
2021/01/01 05:25:48;;;;;;;19.87;13.27;;;;;;;;;;5034395;28;20109;-69
2021/01/01 05:28:14;;;;;;;21.50;14.60;;;;;;;;;;5034464;28;20552;-69
2021/01/01 05:30:41;;;;;;;19.77;14.30;;;;;;;;;;5034424;28;20051;-69
2021/01/01 05:33:08;;;;;;;20.40;14.30;;;;;;;;;;5034569;28;20465;-68
2021/01/01 05:35:34;;;;;;;22.80;14.33;;;;;;;;;;5034504;28;20418;-69
2021/01/01 05:38:15;;;;;;;20.60;14.20;;;;;;;;;;5034321;28;20390;-68
2021/01/01 05:40:41;;;;;;;22.90;15.03;;;;;;;;;;5034107;28;20044;-68
2021/01/01 05:43:23;;;;;;;23.53;16.13;;;;;;;;;;5034093;28;20087;-69
2021/01/01 05:45:50;;;;;;;21.53;15.13;;;;;;;;;;5034094;28;20371;-69
2021/01/01 05:48:19;;;;;;;23.43;15.90;;;;;;;;;;5034280;28;20033;-70
2021/01/01 05:50:46;;;;;;;23.70;16.23;;;;;;;;;;5034176;28;20021;-69
2021/01/01 05:53:21;;;;;;;22.87;16.47;;;;;;;;;;5034241;28;20029;-69
2021/01/01 05:55:48;;;;;;;24.07;16.57;;;;;;;;;;5033853;28;20031;-69
2021/01/01 05:58:23;;;;;;;23.60;16.60;;;;;;;;;;5033852;28;20025;-69
2021/01/01 06:00:54;;;;;;;23.93;16.13;;;;;;;;;;5033887;28;20052;-70
2021/01/01 06:03:22;;;;;;;26.53;17.70;;;;;;;;;;5033918;28;20486;-69
2021/01/01 06:05:55;;;;;;;25.87;17.27;;;;;;;;;;5033692;28;20386;-69
2021/01/01 06:08:23;;;;;;;26.17;17.43;;;;;;;;;;5033674;28;20030;-69
2021/01/01 06:10:50;;;;;;;24.13;16.60;;;5.40;87.30;;;;;;5034138;28;20033;-69
2021/01/01 06:13:19;;;;;;;26.13;15.83;;;5.60;88.70;;;;;;5033643;28;20026;-69
2021/01/01 06:15:54;;;;;;;23.00;16.70;;;5.60;88.60;;;;;;5033588;28;20022;-69
2021/01/01 06:18:28;;;;;;;24.37;16.80;;;5.60;89.10;;;;;;5033656;28;20045;-69
2021/01/01 06:21:03;;;;;;;27.20;17.03;;;5.60;89.30;;;;;;5033569;28;20041;-69
2021/01/01 06:23:36;;;;;;;25.33;15.60;;;5.60;89.20;;;;;;5033538;28;20083;-69
2021/01/01 06:26:05;;;;;;;24.90;15.63;;;5.70;89.30;;;;;;5033739;28;20394;-69
2021/01/01 06:28:32;;;;;;;21.27;14.80;;;5.70;89.10;;;;;;5033373;28;20024;-69
2021/01/01 06:31:00;;;;;;;18.63;13.73;;;5.70;88.90;;;;;;5033285;28;20026;-69
2021/01/01 06:33:26;;;;;;;20.50;13.67;;;5.70;88.80;;;;;;5033271;28;20029;-69
2021/01/01 06:35:52;;;;;;;18.67;12.80;;;5.70;89.10;;;;;;5033535;28;20030;-70
2021/01/01 06:38:37;;;;;;;19.50;12.10;;;5.70;89.30;;;;;;5033477;28;20029;-69
2021/01/01 06:41:42;;;;;;;20.13;11.53;;;5.70;89.10;;;;;;5032927;28;20036;-70
2021/01/01 06:44:07;;;;;;;24.47;12.53;;;5.70;89.50;;;;;;5033313;28;20032;-69
2021/01/01 06:46:34;;;;;;;20.27;10.57;;;5.80;88.70;;;;;;5033287;28;20021;-69
2021/01/01 06:49:00;;;;;;;21.27;10.80;;;5.80;88.30;;;;;;5033290;28;20025;-69
2021/01/01 06:51:29;;;;;;;22.23;10.37;;;5.80;88.00;;;;;;5033118;28;20021;-69
2021/01/01 06:54:09;;;;;;;24.40;11.03;;;5.80;87.80;;;;;;5033026;28;20072;-69
2021/01/01 06:56:35;;;;;;;19.57;10.90;;;5.80;88.00;;;;;;5032980;28;20026;-70
2021/01/01 06:59:08;;;;;;;18.60;10.37;;;5.80;88.10;;;;;;5033319;28;20033;-69
2021/01/01 07:01:40;;;;;;;17.20;10.17;;;5.70;88.10;;;;;;5033403;28;20471;-68
2021/01/01 07:04:06;;;;;;;20.08;10.18;;;5.80;88.20;;;;;;5033117;28;20048;-69
2021/01/01 07:06:33;;;;;;;19.33;11.50;;;5.70;88.30;;;;;;5032664;28;20075;-69
2021/01/01 07:08:59;;;;;;;19.70;11.67;;;5.80;88.20;;;;;;5032997;28;20132;-69
2021/01/01 07:11:25;;;;;;;19.20;11.07;;;;;;;;;;5032956;28;20100;-68
2021/01/01 07:13:51;;;;;;;18.33;11.47;;;;;;;;;;5033015;28;20057;-68
2021/01/01 07:16:21;;;;;;;18.67;11.17;;;;;;;;;;5032746;28;20108;-69
2021/01/01 07:18:48;;;;;;;18.80;10.83;;;;;;;;;;5032671;28;20049;-70
2021/01/01 07:21:15;;;;;;;16.90;10.53;;;;;;;;;;5032702;28;20104;-70
2021/01/01 07:23:41;;;;;;;20.73;11.10;;;;;;;;;;5032953;28;20381;-70
2021/01/01 07:26:07;;;;;;;24.00;11.77;;;;;;;;;;5032540;28;20025;-68
2021/01/01 07:28:33;;;;;;;16.90;10.50;;;;;;;;;;5032566;28;20112;-70
2021/01/01 07:31:00;;;;;;;18.03;11.93;;;;;;;;;;5032460;28;20059;-70
2021/01/01 07:33:27;;;;;;;19.53;13.00;;;;;;;;;;5032904;28;20022;-70
2021/01/01 07:35:54;;;;;;;21.67;13.23;;;;;;;;;;5032509;28;20024;-69
2021/01/01 07:38:20;;;;;;;23.67;13.03;;;;;;;;;;5032671;28;20030;-69
2021/01/01 07:40:46;;;;;;;18.93;12.33;;;;;;;;;;5032752;28;20022;-69
2021/01/01 07:43:12;;;;;;;19.40;11.27;;;;;;;;;;5035439;28;20128;-69
2021/01/01 07:45:39;;;;;;;19.33;12.10;;;;;;;;;;5036377;28;20018;-70
2021/01/01 07:48:05;;;;;;;20.20;12.47;;;;;;;;;;5036603;28;20029;-69
2021/01/01 07:50:31;;;;;;;22.83;11.77;;;;;;;;;;5036322;28;20064;-69
2021/01/01 07:53:04;;;;;;;18.33;11.20;;;;;;;;;;5037069;28;20049;-68
2021/01/01 07:55:31;;;;;;;19.03;11.07;;;;;;;;;;5036187;28;20024;-70
2021/01/01 07:58:16;;;;;;;19.37;11.23;;;;;;;;;;5036373;28;20052;-68
2021/01/01 08:00:43;;;;;;;15.40;10.33;;;;;;;;;;5036171;28;20022;-69
2021/01/01 08:03:10;;;;;;;17.10;10.10;;;;;;;;;;5036019;28;20049;-69
2021/01/01 08:05:36;;;;;;;19.10;10.70;;;;;;;;;;5035669;28;20049;-69
2021/01/01 08:08:12;;;;;;;19.77;10.67;;;;;;;;;;5035997;28;20057;-70
2021/01/01 08:10:38;;;;;;;18.77;10.87;;;;;;;;;;5035797;28;20017;-69
2021/01/01 08:13:04;;;;;;;19.60;10.33;;;;;;;;;;5035813;28;20032;-69
2021/01/01 08:15:31;;;;;;;17.77;10.03;;;;;;;;;;5035960;28;20033;-69
2021/01/01 08:18:07;;;;;;;16.80;10.87;;;;;;;;;;5035648;28;20498;-69
2021/01/01 08:20:33;;;;;;;18.90;11.13;;;;;;;;;;5035900;28;20053;-69
2021/01/01 08:23:02;;;;;;;19.17;10.20;;;;;;;;;;5035339;28;20083;-69
2021/01/01 08:25:29;;;;;;;17.13;10.60;;;;;;;;;;5035328;28;20071;-70
2021/01/01 08:27:55;;;;;;;21.60;12.03;;;;;;;;;;5035470;28;20040;-66
2021/01/01 08:30:22;;;;;;;19.03;10.93;;;;;;;;;;5035601;28;20060;-66
2021/01/01 08:32:48;;;;;;;17.03;11.37;;;;;;;;;;5035726;28;20033;-66
2021/01/01 08:35:14;;;;;;;17.63;11.73;;;;;;;;;;5035523;28;20022;-65
2021/01/01 08:37:41;;;;;;;18.83;12.10;;;;;;;;;;5035540;28;20032;-65
2021/01/01 08:40:10;;;;;;;26.37;10.60;;;;;;;;;;5035486;28;20061;-65
2021/01/01 08:42:37;;;;;;;17.23;11.30;;;;;;;;;;5033538;28;20041;-66
2021/01/01 08:45:05;;;;;;;20.60;11.97;;;;;;;;;;5032745;28;20032;-66
2021/01/01 08:47:37;;;;;;;19.23;11.93;;;;;;;;;;5032673;28;20056;-66
2021/01/01 08:50:04;;;;;;;21.77;12.93;;;;;;;;;;5034647;28;20101;-67
2021/01/01 08:52:31;;;;;;;19.93;13.50;;;;;;;;;;5035206;28;20030;-66
2021/01/01 08:54:58;;;;;;;18.50;12.70;;;;;;;;;;5033844;28;20029;-66
2021/01/01 08:57:28;;;;;;;20.53;13.53;;;;;;;;;;5034645;28;20087;-65
2021/01/01 09:00:00;;;;;;;22.97;14.20;;;;;;;;;;5035113;28;20433;-66
2021/01/01 09:02:29;;;;;;;20.75;14.82;;;;;;;;;;5035122;28;20549;-65
2021/01/01 09:04:56;;;;;;;23.40;14.50;;;;;;;;;;5034737;28;20048;-65
2021/01/01 09:07:22;;;;;;;23.07;15.90;;;;;;;;;;5034475;28;20049;-65
2021/01/01 09:09:48;;;;;;;20.27;15.77;;;;;;;;;;5034472;28;20057;-66
2021/01/01 09:12:15;;;;;;;21.27;15.17;;;;;;;;;;5032362;28;20030;-66
2021/01/01 09:14:54;;;;;;;22.27;14.10;;;;;;;;;;5031861;28;20034;-66
2021/01/01 09:17:24;;;;;;;25.07;16.17;;;;;;;;;;5031921;28;20060;-66
2021/01/01 09:20:03;;;;;;;24.77;15.47;;;;;;;;;;5034245;28;20033;-66
2021/01/01 09:22:32;;;;;;;29.50;18.40;;;5.80;88.10;;;;;;5034335;28;20478;-66
2021/01/01 09:25:21;;;;;;;27.47;17.30;;;6.40;86.80;;;;;;5034654;28;20406;-65
2021/01/01 09:27:47;;;;;;;24.70;17.13;;;6.50;86.80;;;;;;5033133;28;20386;-65
2021/01/01 09:30:16;;;;;;;27.07;15.97;;;6.50;86.70;;;;;;5034225;28;20109;-66
2021/01/01 09:32:50;;;;;;;22.87;15.37;;;6.50;86.00;;;;;;5034303;28;20029;-66
2021/01/01 09:35:16;;;;;;;26.80;15.87;;;6.50;86.00;;;;;;5034132;28;20073;-66
2021/01/01 09:37:49;;;;;;;23.50;16.30;;;;;;;;;;5034025;28;20101;-66
2021/01/01 09:40:16;;;;;;;31.90;23.20;;;;;;;;;;5034184;28;20096;-66
2021/01/01 09:42:42;;;;;;;38.43;25.90;;;;;;;;;;5032995;28;20061;-66
2021/01/01 09:45:09;;;;;;;24.00;16.73;;;;;;;;;;5033799;28;20516;-66
2021/01/01 09:47:35;;;;;;;28.20;16.93;;;;;;;;;;5034241;28;20047;-66
2021/01/01 09:50:01;;;;;;;30.37;16.10;;;;;;;;;;5034166;28;20021;-66
2021/01/01 09:52:27;;;;;;;25.63;14.37;;;;;;;;;;5034154;28;20017;-66
2021/01/01 09:54:53;;;;;;;20.17;13.13;;;6.50;85.90;;;;;;5034089;28;20037;-66
2021/01/01 09:57:18;;;;;;;19.97;13.70;;;6.70;86.50;;;;;;5033876;28;20029;-66
2021/01/01 09:59:44;;;;;;;20.40;13.93;;;6.70;86.10;;;;;;5034070;28;20033;-66
2021/01/01 10:02:10;;;;;;;20.90;13.67;;;;;;;;;;5034047;28;20041;-66
2021/01/01 10:04:36;;;;;;;19.47;13.77;;;;;;;;;;5033624;28;20022;-66
2021/01/01 10:07:02;;;;;;;18.43;12.97;;;;;;;;;;5033965;28;20036;-66
2021/01/01 10:09:28;;;;;;;18.37;13.90;;;;;;;;;;5033918;28;20026;-66
2021/01/01 10:11:57;;;;;;;21.70;14.50;;;;;;;;;;5033629;28;20367;-66
2021/01/01 10:14:23;;;;;;;17.90;13.23;;;;;;;;;;5033757;28;20065;-66
2021/01/01 10:16:50;;;;;;;19.40;13.43;;;;;;;;;;5033525;28;20037;-66
2021/01/01 10:19:16;;;;;;;21.30;13.33;;;;;;;;;;5033479;28;20030;-66
2021/01/01 10:21:42;;;;;;;19.40;14.13;;;;;;;;;;5033509;28;20025;-66
2021/01/01 10:24:09;;;;;;;27.97;20.57;;;;;;;;;;5033669;28;20032;-66
2021/01/01 10:26:35;;;;;;;24.10;17.20;;;;;;;;;;5033393;28;20021;-65
2021/01/01 10:29:01;;;;;;;22.93;16.77;;;;;;;;;;5033127;28;20055;-66
2021/01/01 10:31:27;;;;;;;20.43;15.33;;;;;;;;;;5033401;28;20025;-66
2021/01/01 10:33:53;;;;;;;26.17;17.03;;;;;;;;;;5033483;28;20037;-65
2021/01/01 10:36:19;;;;;;;27.30;19.33;;;;;;;;;;5033164;28;20025;-65
2021/01/01 10:38:45;;;;;;;23.93;14.10;;;;;;;;;;5033330;28;20028;-66
2021/01/01 10:41:14;;;;;;;21.70;15.67;;;;;;;;;;5033045;28;20092;-65
2021/01/01 10:43:41;;;;;;;20.20;15.37;;;;;;;;;;5033311;28;20469;-65
2021/01/01 10:46:07;;;;;;;30.23;20.83;;;;;;;;;;5033145;28;20029;-65
2021/01/01 10:48:33;;;;;;;47.50;33.77;;;;;;;;;;5031377;28;20022;-66
2021/01/01 10:50:59;;;;;;;42.90;31.10;;;;;;;;;;5030200;28;20092;-65
2021/01/01 10:53:26;;;;;;;19.13;14.47;;;;;;;;;;5029557;28;20025;-66
2021/01/01 10:55:52;;;;;;;17.07;10.63;;;;;;;;;;5032740;28;20018;-65
2021/01/01 10:58:23;;;;;;;15.63;10.37;;;;;;;;;;5033003;28;20164;-65
2021/01/01 11:00:56;;;;;;;12.73;8.40;;;;;;;;;;5033014;28;20071;-65
2021/01/01 11:03:22;;;;;;;11.95;7.85;;;;;;;;;;5033146;28;20032;-66
2021/01/01 11:05:48;;;;;;;8.73;6.60;;;;;;;;;;5033027;28;20025;-66
2021/01/01 11:08:15;;;;;;;11.43;6.70;;;;;;;;;;5032780;28;20100;-65
2021/01/01 11:10:41;;;;;;;12.67;7.67;;;;;;;;;;5033005;28;20459;-66
2021/01/01 11:13:07;;;;;;;12.60;7.90;;;;;;;;;;5031459;28;20033;-65
2021/01/01 12:27:02;;;;;;;23.80;13.80;;;;;;;;;;5035708;28;20548;-64
2021/01/01 12:29:28;;;;;;;16.33;11.83;;;;;;;;;;5035209;28;20048;-64
2021/01/01 12:31:56;;;;;;;18.23;13.80;;;;;;;;;;5035491;28;20025;-64
2021/01/01 12:34:22;;;;;;;23.27;14.27;;;;;;;;;;5035541;28;20025;-65
2021/01/01 12:36:48;;;;;;;19.73;13.10;;;;;;;;;;5035416;28;20025;-64
2021/01/01 12:39:14;;;;;;;15.93;11.93;;;;;;;;;;5035532;28;20470;-65
2021/01/01 12:41:40;;;;;;;14.47;10.97;;;;;;;;;;5035377;28;20144;-65
2021/01/01 12:44:06;;;;;;;15.37;10.07;;;;;;;;;;5034873;28;20054;-65
2021/01/01 12:46:32;;;;;;;17.77;12.93;;;;;;;;;;5035055;28;20410;-65
2021/01/01 12:48:58;;;;;;;15.00;11.27;;;;;;;;;;5035419;28;20108;-65
2021/01/01 12:51:24;;;;;;;14.43;9.93;;;;;;;;;;5035195;28;20034;-64
2021/01/01 12:53:50;;;;;;;14.77;9.53;;;;;;;;;;5035103;28;20028;-65
2021/01/01 12:56:16;;;;;;;15.13;11.60;;;;;;;;;;5034880;28;20096;-65
2021/01/01 12:58:42;;;;;;;18.67;9.77;;;;;;;;;;5034865;28;20029;-65
2021/01/01 13:01:08;;;;;;;15.30;9.43;;;;;;;;;;5034882;28;20487;-67
2021/01/01 13:03:34;;;;;;;18.20;10.17;;;;;;;;;;5034928;28;20422;-65
2021/01/01 13:06:01;;;;;;;12.57;9.77;;;;;;;;;;5034380;28;20041;-65
2021/01/01 13:08:27;;;;;;;14.13;9.30;;;;;;;;;;5034886;28;20029;-64
2021/01/01 13:10:53;;;;;;;17.30;9.83;;;;;;;;;;5034523;28;20034;-65
2021/01/01 13:13:19;;;;;;;12.97;9.47;;;;;;;;;;5043141;28;20044;-65
2021/01/01 13:15:45;;;;;;;14.13;9.57;;;;;;;;;;5054061;28;20021;-65
2021/01/01 13:18:11;;;;;;;15.47;10.23;;;;;;;;;;5054275;28;20064;-67
2021/01/01 13:20:37;;;;;;;16.63;11.40;;;;;;;;;;5053996;28;20025;-65
2021/01/01 13:23:03;;;;;;;18.50;11.83;;;;;;;;;;5054065;28;20033;-65
2021/01/01 13:25:29;;;;;;;17.47;11.47;;;;;;;;;;5054273;28;20025;-65
2021/01/01 13:27:55;;;;;;;18.70;10.10;;;;;;;;;;5054018;28;20481;-64
2021/01/01 13:30:21;;;;;;;15.33;8.93;;;;;;;;;;5054415;28;20028;-64
2021/01/01 13:32:47;;;;;;;362.30;165.47;;;;;;;;;;5054282;28;20031;-64
2021/01/01 13:35:13;;;;;;;188.93;132.60;;;;;;;;;;5050410;28;20049;-65
2021/01/01 13:37:39;;;;;;;78.87;60.00;;;;;;;;;;5040867;28;20422;-66
2021/01/01 13:40:06;;;;;;;32.17;25.53;;;;;;;;;;5037674;28;20385;-64
2021/01/01 13:42:32;;;;;;;20.27;15.03;;;;;;;;;;5052637;28;20062;-64
2021/01/01 13:44:58;;;;;;;17.77;14.07;;;;;;;;;;5053567;28;20032;-67
2021/01/01 13:47:24;;;;;;;21.40;15.70;;;;;;;;;;5053888;28;20083;-65
2021/01/01 13:49:50;;;;;;;22.97;15.03;;;;;;;;;;5054022;28;20074;-64
2021/01/01 13:52:17;;;;;;;19.87;14.40;;;;;;;;;;5053789;28;20029;-64
2021/01/01 13:54:44;;;;;;;18.20;13.67;;;;;;;;;;5054116;28;20111;-64
2021/01/01 13:57:10;;;;;;;22.63;15.97;;;;;;;;;;5053814;28;20040;-65
2021/01/01 13:59:36;;;;;;;21.97;14.13;;;;;;;;;;5053265;28;20017;-65
2021/01/01 14:02:02;;;;;;;20.73;12.60;;;;;;;;;;5053753;28;20171;-65
2021/01/01 14:04:28;;;;;;;17.70;12.83;;;;;;;;;;5053636;28;20036;-65
2021/01/01 14:06:55;;;;;;;19.63;12.57;;;;;;;;;;5053027;28;20390;-66
2021/01/01 14:09:21;;;;;;;16.13;12.13;;;;;;;;;;5053590;28;20371;-67
2021/01/01 14:11:51;;;;;;;16.10;11.70;;;;;;;;;;5053747;28;20039;-64
2021/01/01 14:14:17;;;;;;;14.57;10.67;;;;;;;;;;5053125;28;20528;-65
2021/01/01 14:16:53;;;;;;;13.10;10.10;;;;;;;;;;5053296;28;20024;-66
2021/01/01 14:19:20;;;;;;;15.10;10.30;;;;;;;;;;5053637;28;20036;-64
2021/01/01 14:21:46;;;;;;;15.17;10.57;;;;;;;;;;5053137;28;20041;-67
2021/01/01 14:24:14;;;;;;;13.13;10.03;;;;;;;;;;5053252;28;20108;-67
2021/01/01 14:26:43;;;;;;;17.93;11.97;;;;;;;;;;5053119;28;20059;-65
2021/01/01 14:29:09;;;;;;;18.07;12.27;;;;;;;;;;5053312;28;20025;-65
2021/01/01 14:31:39;;;;;;;16.87;12.50;;;;;;;;;;5053298;28;20074;-65
2021/01/01 14:34:05;;;;;;;18.30;12.63;;;;;;;;;;5053296;28;20060;-64
2021/01/01 14:36:32;;;;;;;17.80;12.80;;;;;;;;;;5052710;28;20470;-64
2021/01/01 14:38:58;;;;;;;16.27;11.40;;;;;;;;;;5053158;28;20024;-66
2021/01/01 14:41:24;;;;;;;17.77;13.57;;;;;;;;;;5052506;28;20033;-69
2021/01/01 14:43:50;;;;;;;25.97;22.33;;;;;;;;;;5052709;28;20486;-65
2021/01/01 14:46:20;;;;;;;31.20;24.93;;;;;;;;;;5052161;28;20147;-66
2021/01/01 14:48:46;;;;;;;27.57;19.83;;;;;;;;;;5049875;28;20112;-66
2021/01/01 14:51:12;;;;;;;22.20;17.00;;;;;;;;;;5049458;28;20029;-65
2021/01/01 14:53:38;;;;;;;18.30;14.27;;;;;;;;;;5051274;28;20036;-65
2021/01/01 14:56:04;;;;;;;19.03;13.43;;;;;;;;;;5052648;28;20039;-64
2021/01/01 14:58:30;;;;;;;18.90;12.27;;;;;;;;;;5052473;28;20021;-65
2021/01/01 15:00:56;;;;;;;14.27;11.57;;;;;;;;;;5052608;28;20040;-65
2021/01/01 15:03:22;;;;;;;10.33;8.10;;;;;;;;;;5052792;28;20033;-65
2021/01/01 15:05:49;;;;;;;12.63;6.60;;;;;;;;;;5052766;28;20355;-65
2021/01/01 15:08:15;;;;;;;9.60;6.10;;;;;;;;;;5052772;28;20082;-65
2021/01/01 15:10:41;;;;;;;12.50;6.80;;;;;;;;;;5053123;28;20103;-65
2021/01/01 15:13:07;;;;;;;27.07;8.77;;;;;;;;;;5052752;28;20025;-66
2021/01/01 15:15:33;;;;;;;14.40;7.90;;;;;;;;;;5052668;28;20104;-65
2021/01/01 15:17:59;;;;;;;13.17;9.53;;;;;;;;;;5052484;28;20053;-65